This is the latest recevied weather packets stored in our database for station/object FW7644. If no packets are shown the sender has not sent any weather packets the latest 1 day(s).
| Time | Temp. | Humidity | Pressure | Rain* | Wind** | Luminosity | Snow |
|---|---|---|---|---|---|---|---|
| 1778073405 | 26.67° C | 65% | 1024.9 hPa | 0 mm | - | - | - |
| 1778072801 | 27.22° C | 66% | 1025.1 hPa | 0 mm | - | - | - |
| 1778071593 | 26.11° C | 69% | 1025.1 hPa | 0 mm | - | - | - |
| 1778071291 | 25.56° C | 71% | 1025.1 hPa | 0 mm | - | - | - |
| 1778069781 | 23.33° C | 77% | 1024.9 hPa | 0 mm | - | - | - |
| 1778069479 | 24.44° C | 72% | 1025 hPa | 0 mm | - | - | - |
| 1778068876 | 22.78° C | 77% | 1025 hPa | 0 mm | - | - | - |
| 1778068272 | 22.78° C | 80% | 1024.9 hPa | 0 mm | - | - | - |
| 1778067970 | 22.78° C | 76% | 1024.9 hPa | 0 mm | - | - | - |
| 1778067367 | 21.67° C | 82% | 1024.8 hPa | 0 mm | - | - | - |
| 1778067065 | 21.11° C | 79% | 1024.8 hPa | 0 mm | - | - | - |
| 1778066160 | 21.67° C | 79% | 1024.6 hPa | 0 mm | - | - | - |
| 1778064954 | 18.33° C | 99% | 1024.4 hPa | 0 mm | - | - | - |
| 1778064351 | 15.56° C | 99% | 1024.3 hPa | 0 mm | - | - | - |
| 1778064049 | 15° C | 99% | 1024.2 hPa | 0 mm | - | - | - |
| 1778063446 | 13.89° C | 99% | 1024.2 hPa | 0 mm | - | - | - |
| 1778062843 | 13.33° C | 99% | 1024 hPa | 0 mm | - | - | - |
| 1778062541 | 13.33° C | 99% | 1023.9 hPa | 0 mm | - | - | - |
| 1778061938 | 12.78° C | 99% | 1024 hPa | 0 mm | - | - | - |
| 1778060731 | 12.78° C | 99% | 1023.8 hPa | 0 mm | - | - | - |
| 1778059826 | 12.78° C | 99% | 1023.6 hPa | 0 mm | - | - | - |
| 1778059524 | 12.78° C | 99% | 1023.6 hPa | 0 mm | - | - | - |
| 1778058921 | 12.78° C | 99% | 1023.5 hPa | 0 mm | - | - | - |
| 1778058619 | 12.78° C | 99% | 1023.3 hPa | 0 mm | - | - | - |
| 1778058318 | 12.78° C | 99% | 1023.2 hPa | 0 mm | - | - | - |
* Rain latest hour (hover to see other rain measurements)
** Current wind speed in m/s (hover to see current wind gust speed)